sensor_id;sensor_type;location;lat;lon;timestamp;pressure;altitude;pressure_sealevel;temperature;humidity
53316;BME280;39204;53.896;11.432;2023-01-08T05:17:35;100245.50;;;7.64;100.00
53316;BME280;39204;53.896;11.432;2023-01-08T05:19:05;100247.56;;;7.62;100.00
53316;BME280;39204;53.896;11.432;2023-01-08T05:30:13;100234.50;;;7.49;100.00
53316;BME280;39204;53.896;11.432;2023-01-08T05:31:43;100227.69;;;7.53;100.00
53316;BME280;39204;53.896;11.432;2023-01-08T05:33:14;100233.16;;;7.46;100.00
53316;BME280;39204;53.896;11.432;2023-01-08T05:34:44;100231.84;;;7.49;100.00
53316;BME280;39204;53.896;11.432;2023-01-08T05:36:15;100228.81;;;7.57;100.00
53316;BME280;39204;53.896;11.432;2023-01-08T05:37:47;100233.34;;;7.57;100.00
53316;BME280;39204;53.896;11.432;2023-01-08T05:41:44;100230.44;;;7.58;100.00
53316;BME280;39204;53.896;11.432;2023-01-08T05:43:14;100227.75;;;7.58;100.00
53316;BME280;39204;53.896;11.432;2023-01-08T05:44:45;100236.47;;;7.54;100.00
53316;BME280;39204;53.896;11.432;2023-01-08T05:46:15;100229.63;;;7.58;100.00
53316;BME280;39204;53.896;11.432;2023-01-08T05:47:45;100233.91;;;7.59;100.00
53316;BME280;39204;53.896;11.432;2023-01-08T05:49:15;100225.94;;;7.47;100.00
53316;BME280;39204;53.896;11.432;2023-01-08T05:50:48;100236.69;;;7.52;100.00
53316;BME280;39204;53.896;11.432;2023-01-08T05:52:18;100232.69;;;7.49;100.00
53316;BME280;39204;53.896;11.432;2023-01-08T05:53:48;100222.13;;;7.43;100.00
53316;BME280;39204;53.896;11.432;2023-01-08T05:55:19;100223.53;;;7.45;100.00
53316;BME280;39204;53.896;11.432;2023-01-08T05:56:49;100224.38;;;7.34;100.00
53316;BME280;39204;53.896;11.432;2023-01-08T05:58:19;100219.06;;;7.34;100.00
53316;BME280;39204;53.896;11.432;2023-01-08T05:59:50;100228.66;;;7.35;100.00
53316;BME280;39204;53.896;11.432;2023-01-08T06:01:20;100220.22;;;7.26;100.00
53316;BME280;39204;53.896;11.432;2023-01-08T06:02:51;100220.78;;;7.28;100.00
53316;BME280;39204;53.896;11.432;2023-01-08T06:04:21;100222.53;;;7.35;100.00
53316;BME280;39204;53.896;11.432;2023-01-08T06:05:51;100225.66;;;7.32;100.00
53316;BME280;39204;53.896;11.432;2023-01-08T06:09:48;100224.56;;;7.16;100.00
53316;BME280;39204;53.896;11.432;2023-01-08T06:11:18;100228.38;;;7.08;100.00
53316;BME280;39204;53.896;11.432;2023-01-08T06:12:49;100235.22;;;7.16;100.00
53316;BME280;39204;53.896;11.432;2023-01-08T06:14:19;100228.38;;;7.20;100.00
53316;BME280;39204;53.896;11.432;2023-01-08T06:15:49;100217.91;;;7.18;100.00
53316;BME280;39204;53.896;11.432;2023-01-08T06:17:19;100225.22;;;7.11;100.00
53316;BME280;39204;53.896;11.432;2023-01-08T06:18:50;100220.25;;;7.15;100.00
53316;BME280;39204;53.896;11.432;2023-01-08T06:20:20;100219.69;;;7.13;100.00
53316;BME280;39204;53.896;11.432;2023-01-08T06:21:50;100215.97;;;7.14;100.00
53316;BME280;39204;53.896;11.432;2023-01-08T06:23:21;100215.25;;;7.18;100.00
53316;BME280;39204;53.896;11.432;2023-01-08T06:24:51;100218.38;;;7.15;100.00
53316;BME280;39204;53.896;11.432;2023-01-08T06:26:21;100211.22;;;7.16;100.00
53316;BME280;39204;53.896;11.432;2023-01-08T06:27:52;100219.22;;;7.16;100.00
53316;BME280;39204;53.896;11.432;2023-01-08T06:29:22;100214.13;;;7.02;100.00
53316;BME280;39204;53.896;11.432;2023-01-08T06:30:53;100212.63;;;7.07;100.00
53316;BME280;39204;53.896;11.432;2023-01-08T06:32:23;100210.19;;;7.05;100.00
53316;BME280;39204;53.896;11.432;2023-01-08T06:33:53;100209.16;;;7.06;100.00
53316;BME280;39204;53.896;11.432;2023-01-08T06:35:24;100212.25;;;7.15;100.00
53316;BME280;39204;53.896;11.432;2023-01-08T06:36:55;100211.84;;;6.94;100.00
53316;BME280;39204;53.896;11.432;2023-01-08T06:38:25;100196.66;;;6.95;100.00
53316;BME280;39204;53.896;11.432;2023-01-08T06:39:55;100203.84;;;6.94;100.00
53316;BME280;39204;53.896;11.432;2023-01-08T06:41:25;100216.00;;;7.02;100.00
53316;BME280;39204;53.896;11.432;2023-01-08T06:43:03;100214.00;;;7.09;100.00
53316;BME280;39204;53.896;11.432;2023-01-08T06:44:34;100215.03;;;7.08;100.00
53316;BME280;39204;53.896;11.432;2023-01-08T06:46:05;100216.22;;;7.12;100.00
53316;BME280;39204;53.896;11.432;2023-01-08T06:47:36;100219.56;;;7.08;100.00
53316;BME280;39204;53.896;11.432;2023-01-08T06:49:06;100202.31;;;7.10;100.00
53316;BME280;39204;53.896;11.432;2023-01-08T06:50:37;100212.84;;;7.17;100.00
53316;BME280;39204;53.896;11.432;2023-01-08T06:52:07;100205.06;;;7.15;100.00
53316;BME280;39204;53.896;11.432;2023-01-08T06:53:37;100211.56;;;7.19;100.00
53316;BME280;39204;53.896;11.432;2023-01-08T06:55:08;100210.97;;;7.17;100.00
53316;BME280;39204;53.896;11.432;2023-01-08T06:56:38;100216.78;;;7.14;100.00
53316;BME280;39204;53.896;11.432;2023-01-08T06:58:09;100213.72;;;7.22;100.00
53316;BME280;39204;53.896;11.432;2023-01-08T06:59:41;100213.06;;;7.15;100.00
53316;BME280;39204;53.896;11.432;2023-01-08T07:01:15;100213.19;;;7.20;100.00
53316;BME280;39204;53.896;11.432;2023-01-08T07:02:45;100202.50;;;7.20;100.00
53316;BME280;39204;53.896;11.432;2023-01-08T07:04:17;100216.06;;;7.19;100.00
53316;BME280;39204;53.896;11.432;2023-01-08T07:05:47;100210.97;;;7.17;100.00
53316;BME280;39204;53.896;11.432;2023-01-08T07:07:19;100207.25;;;7.18;100.00
53316;BME280;39204;53.896;11.432;2023-01-08T07:08:49;100218.16;;;7.17;100.00
53316;BME280;39204;53.896;11.432;2023-01-08T07:10:20;100213.56;;;7.12;100.00
53316;BME280;39204;53.896;11.432;2023-01-08T07:11:50;100222.81;;;7.10;100.00
53316;BME280;39204;53.896;11.432;2023-01-08T07:13:20;100217.34;;;7.16;100.00
53316;BME280;39204;53.896;11.432;2023-01-08T07:14:52;100217.91;;;7.18;100.00
53316;BME280;39204;53.896;11.432;2023-01-08T07:16:23;100223.50;;;7.17;100.00
53316;BME280;39204;53.896;11.432;2023-01-08T07:17:53;100224.78;;;7.14;100.00
53316;BME280;39204;53.896;11.432;2023-01-08T07:19:23;100222.69;;;7.16;100.00
53316;BME280;39204;53.896;11.432;2023-01-08T07:20:53;100223.59;;;7.22;100.00
53316;BME280;39204;53.896;11.432;2023-01-08T07:22:24;100229.88;;;7.16;100.00
53316;BME280;39204;53.896;11.432;2023-01-08T07:23:54;100226.38;;;7.15;100.00
53316;BME280;39204;53.896;11.432;2023-01-08T07:25:25;100226.38;;;7.15;100.00
53316;BME280;39204;53.896;11.432;2023-01-08T07:26:55;100229.88;;;7.16;100.00
53316;BME280;39204;53.896;11.432;2023-01-08T07:28:26;100221.53;;;7.12;100.00
53316;BME280;39204;53.896;11.432;2023-01-08T07:29:56;100220.25;;;7.15;100.00
53316;BME280;39204;53.896;11.432;2023-01-08T07:31:26;100219.22;;;7.16;100.00
53316;BME280;39204;53.896;11.432;2023-01-08T07:32:59;100222.56;;;7.11;100.00
53316;BME280;39204;53.896;11.432;2023-01-08T07:34:29;100220.75;;;7.00;100.00
53316;BME280;39204;53.896;11.432;2023-01-08T07:36:00;100219.81;;;7.06;100.00
53316;BME280;39204;53.896;11.432;2023-01-08T07:37:31;100218.53;;;6.97;100.00
53316;BME280;39204;53.896;11.432;2023-01-08T07:39:01;100226.41;;;7.03;100.00
53316;BME280;39204;53.896;11.432;2023-01-08T07:40:32;100218.28;;;7.10;100.00
53316;BME280;39204;53.896;11.432;2023-01-08T07:42:03;100218.28;;;7.10;100.00
53316;BME280;39204;53.896;11.432;2023-01-08T07:43:33;100222.03;;;6.97;100.00
53316;BME280;39204;53.896;11.432;2023-01-08T07:45:05;100231.28;;;7.07;100.00
53316;BME280;39204;53.896;11.432;2023-01-08T07:46:35;100223.88;;;7.09;100.00
53316;BME280;39204;53.896;11.432;2023-01-08T07:48:06;100218.06;;;7.00;100.00
53316;BME280;39204;53.896;11.432;2023-01-08T07:49:36;100219.50;;;6.91;100.00
53316;BME280;39204;53.896;11.432;2023-01-08T07:51:07;100211.38;;;6.97;100.00
53316;BME280;39204;53.896;11.432;2023-01-08T07:52:38;100212.56;;;6.90;100.00
53316;BME280;39204;53.896;11.432;2023-01-08T07:54:08;100215.53;;;6.93;100.00
53316;BME280;39204;53.896;11.432;2023-01-08T07:55:38;100223.88;;;6.97;100.00
53316;BME280;39204;53.896;11.432;2023-01-08T07:57:09;100218.31;;;6.98;100.00
53316;BME280;39204;53.896;11.432;2023-01-08T07:58:39;100214.38;;;7.01;100.00
53316;BME280;39204;53.896;11.432;2023-01-08T08:00:10;100217.72;;;6.96;100.00
53316;BME280;39204;53.896;11.432;2023-01-08T08:01:40;100204.28;;;7.03;100.00
53316;BME280;39204;53.896;11.432;2023-01-08T08:03:10;100212.06;;;7.05;100.00
53316;BME280;39204;53.896;11.432;2023-01-08T08:04:41;100206.13;;;7.14;100.00
53316;BME280;39204;53.896;11.432;2023-01-08T08:06:11;100205.06;;;7.15;100.00
53316;BME280;39204;53.896;11.432;2023-01-08T08:07:41;100209.50;;;7.10;100.00
53316;BME280;39204;53.896;11.432;2023-01-08T08:09:11;100204.50;;;7.13;100.00
53316;BME280;39204;53.896;11.432;2023-01-08T08:10:42;100207.97;;;7.14;100.00
53316;BME280;39204;53.896;11.432;2023-01-08T08:12:12;100203.47;;;7.02;100.00
53316;BME280;39204;53.896;11.432;2023-01-08T08:13:43;100210.03;;;7.12;100.00
53316;BME280;39204;53.896;11.432;2023-01-08T08:15:14;100204.88;;;7.05;100.00
53316;BME280;39204;53.896;11.432;2023-01-08T08:16:44;100203.22;;;7.04;100.00
53316;BME280;39204;53.896;11.432;2023-01-08T08:18:14;100208.91;;;7.08;100.00
53316;BME280;39204;53.896;11.432;2023-01-08T08:19:45;100201.53;;;6.98;100.00
53316;BME280;39204;53.896;11.432;2023-01-08T08:21:15;100209.41;;;7.05;100.00
53316;BME280;39204;53.896;11.432;2023-01-08T08:22:45;100201.50;;;7.10;100.00
53316;BME280;39204;53.896;11.432;2023-01-08T08:24:16;100200.22;;;7.12;100.00
53316;BME280;39204;53.896;11.432;2023-01-08T08:25:46;100198.78;;;7.21;100.00
53316;BME280;39204;53.896;11.432;2023-01-08T08:27:16;100189.53;;;7.24;100.00
53316;BME280;39204;53.896;11.432;2023-01-08T08:28:47;100197.97;;;7.21;100.00
53316;BME280;39204;53.896;11.432;2023-01-08T08:30:17;100197.72;;;7.22;100.00
53316;BME280;39204;53.896;11.432;2023-01-08T08:31:47;100185.94;;;7.18;100.00
53316;BME280;39204;53.896;11.432;2023-01-08T08:33:17;100190.03;;;7.09;100.00
53316;BME280;39204;53.896;11.432;2023-01-08T08:34:48;100191.22;;;7.01;100.00
53316;BME280;39204;53.896;11.432;2023-01-08T08:36:19;100184.25;;;7.00;100.00
53316;BME280;39204;53.896;11.432;2023-01-08T08:37:50;100183.22;;;7.01;100.00
53316;BME280;39204;53.896;11.432;2023-01-08T08:39:20;100183.31;;;7.07;100.00
53316;BME280;39204;53.896;11.432;2023-01-08T08:40:51;100188.84;;;7.17;100.00
53316;BME280;39204;53.896;11.432;2023-01-08T08:42:21;100182.84;;;7.10;100.00
53316;BME280;39204;53.896;11.432;2023-01-08T08:43:51;100180.09;;;7.05;100.00
53316;BME280;39204;53.896;11.432;2023-01-08T08:45:22;100185.03;;;7.13;100.00
53316;BME280;39204;53.896;11.432;2023-01-08T08:46:53;100181.66;;;7.17;100.00
53316;BME280;39204;53.896;11.432;2023-01-08T08:48:24;100188.59;;;7.18;100.00
53316;BME280;39204;53.896;11.432;2023-01-08T08:49:54;100189.41;;;7.19;100.00
53316;BME280;39204;53.896;11.432;2023-01-08T08:51:25;100185.13;;;7.18;100.00
53316;BME280;39204;53.896;11.432;2023-01-08T08:53:00;100184.06;;;7.19;100.00
53316;BME280;39204;53.896;11.432;2023-01-08T08:54:30;100184.78;;;7.14;100.00
53316;BME280;39204;53.896;11.432;2023-01-08T08:56:01;100183.72;;;7.15;100.00
53316;BME280;39204;53.896;11.432;2023-01-08T08:57:31;100186.78;;;7.07;100.00
53316;BME280;39204;53.896;11.432;2023-01-08T08:59:02;100183.41;;;7.12;100.00
53316;BME280;39204;53.896;11.432;2023-01-08T09:00:32;100182.72;;;7.16;100.00
53316;BME280;39204;53.896;11.432;2023-01-08T09:02:03;100186.94;;;7.29;100.00
53316;BME280;39204;53.896;11.432;2023-01-08T09:03:35;100194.13;;;7.28;100.00
53316;BME280;39204;53.896;11.432;2023-01-08T09:05:05;100193.88;;;7.30;100.00
53316;BME280;39204;53.896;11.432;2023-01-08T09:06:35;100181.19;;;7.20;100.00
53316;BME280;39204;53.896;11.432;2023-01-08T09:08:06;100194.03;;;7.23;100.00
53316;BME280;39204;53.896;11.432;2023-01-08T09:09:36;100193.00;;;7.24;100.00
53316;BME280;39204;53.896;11.432;2023-01-08T09:11:06;100190.66;;;7.28;100.00
53316;BME280;39204;53.896;11.432;2023-01-08T09:12:37;100194.13;;;7.28;100.00
53316;BME280;39204;53.896;11.432;2023-01-08T09:14:07;100186.28;;;7.22;100.00
53316;BME280;39204;53.896;11.432;2023-01-08T09:15:37;100187.75;;;7.30;100.00
53316;BME280;39204;53.896;11.432;2023-01-08T09:17:08;100184.38;;;7.34;100.00
53316;BME280;39204;53.896;11.432;2023-01-08T09:18:38;100181.13;;;7.32;100.00
53316;BME280;39204;53.896;11.432;2023-01-08T09:20:08;100185.66;;;7.32;100.00
53316;BME280;39204;53.896;11.432;2023-01-08T09:21:39;100181.22;;;7.37;100.00
53316;BME280;39204;53.896;11.432;2023-01-08T09:23:09;100185.53;;;7.38;100.00
53316;BME280;39204;53.896;11.432;2023-01-08T09:24:39;100189.75;;;7.51;100.00
53316;BME280;39204;53.896;11.432;2023-01-08T09:26:10;100179.56;;;7.48;100.00
53316;BME280;39204;53.896;11.432;2023-01-08T09:27:40;100188.38;;;7.48;100.00
53316;BME280;39204;53.896;11.432;2023-01-08T09:29:10;100183.38;;;7.52;100.00
53316;BME280;39204;53.896;11.432;2023-01-08T09:30:41;100190.34;;;7.53;100.00
53316;BME280;39204;53.896;11.432;2023-01-08T09:32:11;100174.63;;;7.40;100.00
53316;BME280;39204;53.896;11.432;2023-01-08T09:33:41;100183.19;;;7.42;100.00
53316;BME280;39204;53.896;11.432;2023-01-08T09:35:11;100183.19;;;7.42;100.00
53316;BME280;39204;53.896;11.432;2023-01-08T09:36:42;100175.28;;;7.47;100.00
53316;BME280;39204;53.896;11.432;2023-01-08T09:38:12;100179.56;;;7.48;100.00
53316;BME280;39204;53.896;11.432;2023-01-08T09:39:42;100178.63;;;7.54;100.00
53316;BME280;39204;53.896;11.432;2023-01-08T09:41:46;100178.84;;;7.52;100.00
53316;BME280;39204;53.896;11.432;2023-01-08T09:43:16;100176.13;;;7.64;100.00
53316;BME280;39204;53.896;11.432;2023-01-08T09:44:50;100177.81;;;7.70;100.00
53316;BME280;39204;53.896;11.432;2023-01-08T09:46:23;100178.22;;;7.62;100.00
53316;BME280;39204;53.896;11.432;2023-01-08T09:47:58;100180.00;;;7.73;100.00
53316;BME280;39204;53.896;11.432;2023-01-08T09:49:36;100172.66;;;7.81;100.00
53316;BME280;39204;53.896;11.432;2023-01-08T09:51:12;100177.53;;;7.84;100.00
53316;BME280;39204;53.896;11.432;2023-01-08T09:52:43;100173.88;;;7.73;100.00
53316;BME280;39204;53.896;11.432;2023-01-08T09:54:14;100173.22;;;7.66;100.00
53316;BME280;39204;53.896;11.432;2023-01-08T09:55:50;100170.81;;;7.81;100.00
53316;BME280;39204;53.896;11.432;2023-01-08T09:57:23;100167.81;;;7.78;100.00
53316;BME280;39204;53.896;11.432;2023-01-08T09:58:56;100163.28;;;7.78;100.00
53316;BME280;39204;53.896;11.432;2023-01-08T10:00:29;100168.38;;;7.80;100.00
53316;BME280;39204;53.896;11.432;2023-01-08T10:02:00;100170.88;;;7.69;100.00
53316;BME280;39204;53.896;11.432;2023-01-08T10:05:33;100172.66;;;7.81;100.00
